createdAt,value
2019-02-27T00:01:17.710Z,23.50
2019-02-27T00:06:27.326Z,25.67
2019-02-27T00:11:34.606Z,27.00
2019-02-27T00:16:41.784Z,24.00
2019-02-27T00:21:46.550Z,24.00
2019-02-27T00:26:55.540Z,24.75
2019-02-27T00:32:04.795Z,27.37
2019-02-27T00:37:09.478Z,26.25
2019-02-27T00:42:19.549Z,28.62
2019-02-27T00:47:25.075Z,32.25
2019-02-27T00:52:32.587Z,33.88
2019-02-27T00:57:36.762Z,31.00
2019-02-27T01:02:43.728Z,35.50
2019-02-27T01:07:53.797Z,34.63
2019-02-27T01:13:01.606Z,34.00
2019-02-27T01:18:08.551Z,35.00
2019-02-27T01:23:15.450Z,35.00
2019-02-27T01:28:25.470Z,35.00
2019-02-27T01:33:30.511Z,39.00
2019-02-27T01:38:37.647Z,41.00
2019-02-27T01:43:44.198Z,37.50
2019-02-27T01:48:53.218Z,41.40
2019-02-27T01:53:56.751Z,35.00
2019-02-27T01:59:03.450Z,42.13
2019-02-27T02:04:08.586Z,42.71
2019-02-27T02:09:29.930Z,40.67
2019-02-27T02:14:39.082Z,44.67
2019-02-27T02:19:54.037Z,42.67
2019-02-27T02:25:12.853Z,39.44
2019-02-27T02:30:41.287Z,39.63
2019-02-27T02:35:50.691Z,39.00
2019-02-27T02:41:14.870Z,40.56
2019-02-27T02:46:24.660Z,37.88
2019-02-27T02:51:48.015Z,39.38
2019-02-27T02:57:00.473Z,37.44
2019-02-27T03:02:13.353Z,36.89
2019-02-27T03:07:22.530Z,39.56
2019-02-27T03:12:41.149Z,40.56
2019-02-27T03:17:54.984Z,42.67
2019-02-27T03:23:15.701Z,37.00
2019-02-27T03:28:28.635Z,38.00
2019-02-27T03:33:47.026Z,39.44
2019-02-27T03:39:02.741Z,41.89
2019-02-27T03:44:20.628Z,48.22
2019-02-27T03:49:29.261Z,41.11
2019-02-27T03:54:39.712Z,42.30
2019-02-27T03:59:58.264Z,38.67
2019-02-27T04:05:09.999Z,42.67
2019-02-27T04:10:17.922Z,42.11
2019-02-27T04:15:27.337Z,45.00
2019-02-27T04:20:36.803Z,41.00
2019-02-27T04:25:43.883Z,41.67
2019-02-27T04:30:52.644Z,37.00
2019-02-27T04:36:02.248Z,41.13
2019-02-27T04:41:10.030Z,38.89
2019-02-27T04:46:21.300Z,38.56
2019-02-27T04:51:26.765Z,36.78
2019-02-27T04:56:34.893Z,37.50
2019-02-27T05:01:39.426Z,40.75
2019-02-27T05:06:49.160Z,41.00
2019-02-27T05:11:57.090Z,45.78
2019-02-27T05:17:06.514Z,39.33
2019-02-27T05:22:15.287Z,41.37
2019-02-27T05:27:25.242Z,39.67
2019-02-27T05:32:30.270Z,39.25
2019-02-27T05:37:39.294Z,39.00
2019-02-27T05:42:50.739Z,50.20
2019-02-27T05:47:59.016Z,51.44
2019-02-27T05:53:07.411Z,52.00
2019-02-27T05:58:15.470Z,52.89
2019-02-27T06:03:23.828Z,51.22
2019-02-27T06:08:35.141Z,57.00
2019-02-27T06:13:44.961Z,53.22
2019-02-27T06:18:48.182Z,54.00
2019-02-27T06:23:58.114Z,54.13
2019-02-27T06:29:08.588Z,49.00
2019-02-27T06:34:19.166Z,56.80
2019-02-27T06:39:28.888Z,49.22
2019-02-27T06:44:39.245Z,50.67
2019-02-27T06:49:41.397Z,43.00
2019-02-27T06:54:52.842Z,48.00
2019-02-27T07:00:04.835Z,46.00
2019-02-27T07:05:16.286Z,48.78
2019-02-27T07:10:22.727Z,50.25
2019-02-27T07:15:27.320Z,42.00
2019-02-27T07:20:37.107Z,43.33
2019-02-27T07:25:46.722Z,35.33
2019-02-27T07:30:51.330Z,35.00
2019-02-27T07:36:03.455Z,36.22
2019-02-27T07:41:08.225Z,35.13
2019-02-27T07:46:22.150Z,38.00
2019-02-27T07:51:27.043Z,42.33
2019-02-27T07:56:30.826Z,37.00
2019-02-27T08:01:43.817Z,37.00
2019-02-27T08:06:48.624Z,41.00
2019-02-27T08:11:52.423Z,33.50
2019-02-27T08:16:58.969Z,34.50
2019-02-27T08:22:06.228Z,36.22
2019-02-27T08:27:14.292Z,31.25
2019-02-27T08:32:22.230Z,32.00
2019-02-27T08:37:25.939Z,33.00
2019-02-27T08:42:36.814Z,34.50
2019-02-27T08:47:43.402Z,34.25
2019-02-27T08:52:51.859Z,28.62
2019-02-27T08:57:59.303Z,31.25
2019-02-27T09:03:05.921Z,37.13
2019-02-27T09:08:10.810Z,50.00
2019-02-27T09:13:19.740Z,36.13
2019-02-27T09:18:26.272Z,34.00
2019-02-27T09:23:32.562Z,36.88
2019-02-27T09:28:44.061Z,33.00
2019-02-27T09:33:47.716Z,35.00
2019-02-27T09:38:57.634Z,31.12
2019-02-27T09:44:07.133Z,28.87
2019-02-27T09:49:15.715Z,31.89
2019-02-27T09:54:18.754Z,33.67
2019-02-27T09:59:28.327Z,35.00
2019-02-27T10:04:32.999Z,42.00
2019-02-27T10:09:41.800Z,32.63
2019-02-27T10:14:50.248Z,30.88
2019-02-27T10:20:01.394Z,33.00
2019-02-27T10:25:08.606Z,33.00
2019-02-27T10:30:17.512Z,31.56
2019-02-27T10:35:23.094Z,34.00
2019-02-27T10:40:31.657Z,33.00
2019-02-27T10:45:39.394Z,30.00
2019-02-27T10:50:46.060Z,31.00
2019-02-27T10:55:56.110Z,29.78
2019-02-27T11:01:05.112Z,26.25
2019-02-27T11:06:13.059Z,29.00
2019-02-27T11:11:17.677Z,30.00
2019-02-27T11:16:22.196Z,28.00
2019-02-27T11:21:26.031Z,25.33
2019-02-27T11:26:33.355Z,28.00
2019-02-27T11:31:37.256Z,27.25
2019-02-27T11:36:41.795Z,24.00
2019-02-27T11:41:50.528Z,25.62
2019-02-27T11:46:58.901Z,29.12
2019-02-27T11:52:07.031Z,22.00
2019-02-27T11:57:13.138Z,22.25
2019-02-27T12:02:28.738Z,24.87
2019-02-27T12:07:32.010Z,22.00
2019-02-27T12:12:35.846Z,16.00
2019-02-27T12:17:39.712Z,23.00
2019-02-27T12:22:48.388Z,20.00
2019-02-27T12:27:53.259Z,23.25
2019-02-27T12:32:59.027Z,22.00
2019-02-27T12:38:08.093Z,22.00
2019-02-27T12:43:18.318Z,20.62
2019-02-27T12:48:26.359Z,23.00
2019-02-27T12:53:35.731Z,24.00
2019-02-27T12:58:45.084Z,20.37
2019-02-27T13:03:54.352Z,21.00
2019-02-27T13:08:58.672Z,26.25
2019-02-27T13:14:07.059Z,20.25
2019-02-27T13:19:12.047Z,23.00
2019-02-27T13:24:17.810Z,28.00
2019-02-27T13:29:25.331Z,22.67
2019-02-27T13:34:29.098Z,21.33
2019-02-27T13:39:37.837Z,23.87
2019-02-27T13:44:43.528Z,21.29
2019-02-27T13:49:50.657Z,18.00
2019-02-27T13:54:53.642Z,18.00
2019-02-27T14:00:03.210Z,26.37
2019-02-27T14:05:09.157Z,21.67
2019-02-27T14:10:17.120Z,17.87
2019-02-27T14:15:28.072Z,28.00
2019-02-27T14:20:34.826Z,25.12
2019-02-27T14:25:42.781Z,23.38
2019-02-27T14:30:52.371Z,27.75
2019-02-27T14:35:59.112Z,22.13
2019-02-27T14:41:05.151Z,25.50
2019-02-27T14:46:11.732Z,22.71
2019-02-27T14:51:16.500Z,25.67
2019-02-27T14:56:21.486Z,24.00
2019-02-27T15:01:26.985Z,25.67
2019-02-27T15:06:35.370Z,23.75
2019-02-27T15:11:39.326Z,23.25
2019-02-27T15:16:49.293Z,22.00
2019-02-27T15:21:56.865Z,20.00
2019-02-27T15:27:06.169Z,23.00
2019-02-27T15:32:12.181Z,22.87
2019-02-27T15:37:21.502Z,27.00
2019-02-27T15:42:27.691Z,19.00
2019-02-27T15:47:34.181Z,22.00
2019-02-27T15:52:40.652Z,22.00
2019-02-27T15:57:52.050Z,24.33
2019-02-27T16:02:54.954Z,20.00
2019-02-27T16:07:59.304Z,27.00
2019-02-27T16:13:09.437Z,21.27
2019-02-27T16:18:17.672Z,27.00
2019-02-27T16:23:24.034Z,24.83
2019-02-27T16:28:32.317Z,26.62
2019-02-27T16:33:41.174Z,22.50
2019-02-27T16:38:50.184Z,25.75
2019-02-27T16:43:54.722Z,23.75
2019-02-27T16:49:00.309Z,28.00
2019-02-27T16:54:07.611Z,27.29
2019-02-27T16:59:14.085Z,28.00
2019-02-27T17:04:23.230Z,28.62
2019-02-27T17:09:31.207Z,31.00
2019-02-27T17:14:36.906Z,31.00
2019-02-27T17:19:45.010Z,31.00
2019-02-27T17:24:55.124Z,30.12
2019-02-27T17:30:01.271Z,33.00
2019-02-27T17:35:11.817Z,33.00
2019-02-27T17:40:20.005Z,33.00
2019-02-27T17:45:28.547Z,33.50
2019-02-27T17:50:37.622Z,32.63
2019-02-27T17:55:42.602Z,33.00
2019-02-27T18:00:51.143Z,34.63
2019-02-27T18:05:59.545Z,36.67
2019-02-27T18:11:12.291Z,34.33
2019-02-27T18:16:19.315Z,37.67
2019-02-27T18:21:33.382Z,37.63
2019-02-27T18:26:37.960Z,34.67
2019-02-27T18:31:44.121Z,35.25
2019-02-27T18:36:52.730Z,41.67
2019-02-27T18:42:02.667Z,38.44
2019-02-27T18:47:13.472Z,35.00
2019-02-27T18:52:21.611Z,34.50
2019-02-27T18:57:29.875Z,33.33
2019-02-27T19:02:38.285Z,35.00
2019-02-27T19:07:42.572Z,39.00
2019-02-27T19:12:49.456Z,37.25
2019-02-27T19:17:57.686Z,37.67
2019-02-27T19:23:05.582Z,36.13
2019-02-27T19:28:09.021Z,39.00
2019-02-27T19:33:19.189Z,41.00
2019-02-27T19:38:23.546Z,41.00
2019-02-27T19:43:32.182Z,48.30
2019-02-27T19:48:36.377Z,49.00
2019-02-27T19:53:44.234Z,43.33
2019-02-27T19:58:52.190Z,50.33
2019-02-27T20:04:02.022Z,51.33
2019-02-27T20:09:06.426Z,53.00
2019-02-27T20:14:15.799Z,54.11
2019-02-27T20:19:22.770Z,43.50
2019-02-27T20:24:35.571Z,48.00
2019-02-27T20:29:42.408Z,53.33
2019-02-27T20:34:47.794Z,57.25
2019-02-27T20:39:59.179Z,54.67
2019-02-27T20:45:11.751Z,51.22
2019-02-27T20:50:34.130Z,56.89
2019-02-27T20:55:34.162Z,52.67
2019-02-27T21:00:38.642Z,62.00
2019-02-27T21:05:45.974Z,62.00
2019-02-27T21:10:55.405Z,60.57
2019-02-27T21:15:56.967Z,66.00
2019-02-27T21:21:08.717Z,64.80
2019-02-27T21:26:12.121Z,70.50
2019-02-27T21:31:27.571Z,69.18
2019-02-27T21:36:37.627Z,69.36
2019-02-27T21:41:46.274Z,67.82
2019-02-27T21:46:54.492Z,66.82
2019-02-27T21:51:58.439Z,69.00
2019-02-27T21:57:04.115Z,60.00
2019-02-27T22:02:14.728Z,57.11
2019-02-27T22:07:32.896Z,57.82
2019-02-27T22:12:37.061Z,57.10
2019-02-27T22:17:40.925Z,63.80
2019-02-27T22:22:44.880Z,63.00
2019-02-27T22:27:58.463Z,59.27
2019-02-27T22:33:05.719Z,56.00
2019-02-27T22:38:16.963Z,58.70
2019-02-27T22:43:21.967Z,54.25
2019-02-27T22:48:32.438Z,49.00
2019-02-27T22:53:40.263Z,44.33
2019-02-27T22:58:45.406Z,41.29
2019-02-27T23:03:54.976Z,36.13
2019-02-27T23:09:07.498Z,44.22
2019-02-27T23:14:12.942Z,44.75
2019-02-27T23:19:21.440Z,51.00
2019-02-27T23:24:29.984Z,52.40
2019-02-27T23:29:39.872Z,53.33
2019-02-27T23:34:49.863Z,50.78
2019-02-27T23:39:59.601Z,45.00
2019-02-27T23:45:10.270Z,47.11
2019-02-27T23:50:17.908Z,43.22
2019-02-27T23:55:24.902Z,43.56
